sensor_id;sensor_type;location;lat;lon;timestamp;P1;durP1;ratioP1;P2;durP2;ratioP2
25057;SDS011;13057;50.978;11.034;2023-02-12T00:00:10;23.70;;;12.85;;
25057;SDS011;13057;50.978;11.034;2023-02-12T00:02:36;23.80;;;13.18;;
25057;SDS011;13057;50.978;11.034;2023-02-12T00:05:02;21.42;;;12.65;;
25057;SDS011;13057;50.978;11.034;2023-02-12T00:07:29;22.50;;;13.68;;
25057;SDS011;13057;50.978;11.034;2023-02-12T00:09:55;23.40;;;12.40;;
25057;SDS011;13057;50.978;11.034;2023-02-12T00:12:21;25.48;;;12.77;;
25057;SDS011;13057;50.978;11.034;2023-02-12T00:14:47;25.50;;;13.07;;
25057;SDS011;13057;50.978;11.034;2023-02-12T00:17:13;30.15;;;17.00;;
25057;SDS011;13057;50.978;11.034;2023-02-12T00:19:38;22.55;;;12.77;;
25057;SDS011;13057;50.978;11.034;2023-02-12T00:22:04;23.17;;;12.35;;
25057;SDS011;13057;50.978;11.034;2023-02-12T00:24:31;22.80;;;13.18;;
25057;SDS011;13057;50.978;11.034;2023-02-12T00:26:56;23.38;;;11.98;;
25057;SDS011;13057;50.978;11.034;2023-02-12T00:29:22;22.65;;;13.18;;
25057;SDS011;13057;50.978;11.034;2023-02-12T00:31:48;25.35;;;13.45;;
25057;SDS011;13057;50.978;11.034;2023-02-12T00:34:14;23.13;;;12.50;;
25057;SDS011;13057;50.978;11.034;2023-02-12T00:36:40;21.63;;;12.27;;
25057;SDS011;13057;50.978;11.034;2023-02-12T00:39:06;21.88;;;11.80;;
25057;SDS011;13057;50.978;11.034;2023-02-12T00:41:32;22.40;;;12.57;;
25057;SDS011;13057;50.978;11.034;2023-02-12T00:43:57;22.30;;;12.52;;
25057;SDS011;13057;50.978;11.034;2023-02-12T00:46:23;24.30;;;12.35;;
25057;SDS011;13057;50.978;11.034;2023-02-12T00:48:49;21.00;;;12.20;;
25057;SDS011;13057;50.978;11.034;2023-02-12T00:51:15;21.60;;;12.25;;
25057;SDS011;13057;50.978;11.034;2023-02-12T00:53:41;21.42;;;11.02;;
25057;SDS011;13057;50.978;11.034;2023-02-12T00:56:07;21.95;;;11.88;;
25057;SDS011;13057;50.978;11.034;2023-02-12T00:58:33;21.63;;;12.05;;
25057;SDS011;13057;50.978;11.034;2023-02-12T01:00:59;20.48;;;11.50;;
25057;SDS011;13057;50.978;11.034;2023-02-12T01:03:25;22.90;;;12.55;;
25057;SDS011;13057;50.978;11.034;2023-02-12T01:05:51;19.13;;;11.02;;
25057;SDS011;13057;50.978;11.034;2023-02-12T01:08:17;20.23;;;11.07;;
25057;SDS011;13057;50.978;11.034;2023-02-12T01:10:43;21.27;;;11.68;;
25057;SDS011;13057;50.978;11.034;2023-02-12T01:13:11;18.77;;;11.23;;
25057;SDS011;13057;50.978;11.034;2023-02-12T01:15:38;22.73;;;12.38;;
25057;SDS011;13057;50.978;11.034;2023-02-12T01:18:04;18.60;;;11.13;;
25057;SDS011;13057;50.978;11.034;2023-02-12T01:20:30;18.83;;;11.40;;
25057;SDS011;13057;50.978;11.034;2023-02-12T01:22:56;22.08;;;11.35;;
25057;SDS011;13057;50.978;11.034;2023-02-12T01:25:21;21.30;;;11.55;;
25057;SDS011;13057;50.978;11.034;2023-02-12T01:27:47;18.90;;;11.80;;
25057;SDS011;13057;50.978;11.034;2023-02-12T01:30:16;16.65;;;10.27;;
25057;SDS011;13057;50.978;11.034;2023-02-12T01:32:49;22.45;;;12.27;;
25057;SDS011;13057;50.978;11.034;2023-02-12T01:35:14;18.70;;;11.63;;
25057;SDS011;13057;50.978;11.034;2023-02-12T01:37:41;17.65;;;10.95;;
25057;SDS011;13057;50.978;11.034;2023-02-12T01:40:07;21.38;;;11.57;;
25057;SDS011;13057;50.978;11.034;2023-02-12T01:42:35;19.85;;;10.52;;
25057;SDS011;13057;50.978;11.034;2023-02-12T01:45:30;19.85;;;10.70;;
25057;SDS011;13057;50.978;11.034;2023-02-12T01:48:10;20.38;;;10.82;;
25057;SDS011;13057;50.978;11.034;2023-02-12T01:50:37;20.88;;;11.55;;
25057;SDS011;13057;50.978;11.034;2023-02-12T01:53:04;17.40;;;10.70;;
25057;SDS011;13057;50.978;11.034;2023-02-12T01:55:30;20.42;;;11.60;;
25057;SDS011;13057;50.978;11.034;2023-02-12T01:57:55;19.05;;;11.75;;
25057;SDS011;13057;50.978;11.034;2023-02-12T02:00:22;19.38;;;11.65;;
25057;SDS011;13057;50.978;11.034;2023-02-12T02:02:50;19.38;;;12.13;;
25057;SDS011;13057;50.978;11.034;2023-02-12T02:05:23;20.50;;;11.52;;
25057;SDS011;13057;50.978;11.034;2023-02-12T02:07:55;19.77;;;12.02;;
25057;SDS011;13057;50.978;11.034;2023-02-12T02:10:21;18.50;;;11.43;;
25057;SDS011;13057;50.978;11.034;2023-02-12T02:12:47;18.73;;;10.95;;
25057;SDS011;13057;50.978;11.034;2023-02-12T02:15:25;18.63;;;10.95;;
25057;SDS011;13057;50.978;11.034;2023-02-12T02:17:56;18.33;;;10.63;;
25057;SDS011;13057;50.978;11.034;2023-02-12T02:23:26;18.58;;;11.63;;
25057;SDS011;13057;50.978;11.034;2023-02-12T02:29:08;17.83;;;11.18;;
25057;SDS011;13057;50.978;11.034;2023-02-12T02:31:55;18.40;;;11.00;;
25057;SDS011;13057;50.978;11.034;2023-02-12T02:34:37;16.65;;;10.48;;
25057;SDS011;13057;50.978;11.034;2023-02-12T02:37:17;18.27;;;10.27;;
25057;SDS011;13057;50.978;11.034;2023-02-12T02:39:52;19.60;;;11.10;;
25057;SDS011;13057;50.978;11.034;2023-02-12T02:42:27;17.55;;;10.50;;
25057;SDS011;13057;50.978;11.034;2023-02-12T02:45:01;19.77;;;11.23;;
25057;SDS011;13057;50.978;11.034;2023-02-12T02:47:41;20.33;;;10.55;;
25057;SDS011;13057;50.978;11.034;2023-02-12T02:50:12;18.63;;;10.75;;
25057;SDS011;13057;50.978;11.034;2023-02-12T02:52:44;19.05;;;11.18;;
25057;SDS011;13057;50.978;11.034;2023-02-12T02:55:17;19.60;;;11.05;;
25057;SDS011;13057;50.978;11.034;2023-02-12T02:57:46;19.90;;;11.77;;
25057;SDS011;13057;50.978;11.034;2023-02-12T03:00:19;17.58;;;10.55;;
25057;SDS011;13057;50.978;11.034;2023-02-12T03:02:53;16.40;;;10.27;;
25057;SDS011;13057;50.978;11.034;2023-02-12T03:05:25;16.08;;;10.07;;
25057;SDS011;13057;50.978;11.034;2023-02-12T03:07:58;16.13;;;10.20;;
25057;SDS011;13057;50.978;11.034;2023-02-12T03:10:30;18.02;;;10.45;;
25057;SDS011;13057;50.978;11.034;2023-02-12T03:13:05;15.88;;;9.90;;
25057;SDS011;13057;50.978;11.034;2023-02-12T03:18:05;16.88;;;10.13;;
25057;SDS011;13057;50.978;11.034;2023-02-12T03:20:38;15.88;;;10.55;;
25057;SDS011;13057;50.978;11.034;2023-02-12T03:23:10;17.95;;;10.32;;
25057;SDS011;13057;50.978;11.034;2023-02-12T03:28:25;16.08;;;10.43;;
25057;SDS011;13057;50.978;11.034;2023-02-12T03:33:35;16.40;;;10.15;;
25057;SDS011;13057;50.978;11.034;2023-02-12T03:36:32;17.17;;;10.18;;
25057;SDS011;13057;50.978;11.034;2023-02-12T03:39:08;16.30;;;10.70;;
25057;SDS011;13057;50.978;11.034;2023-02-12T03:44:12;16.98;;;10.55;;
25057;SDS011;13057;50.978;11.034;2023-02-12T03:46:50;17.95;;;10.52;;
25057;SDS011;13057;50.978;11.034;2023-02-12T03:49:31;17.48;;;10.20;;
25057;SDS011;13057;50.978;11.034;2023-02-12T03:52:02;16.40;;;10.57;;
25057;SDS011;13057;50.978;11.034;2023-02-12T03:54:28;20.35;;;12.90;;
25057;SDS011;13057;50.978;11.034;2023-02-12T03:56:56;18.58;;;11.25;;
25057;SDS011;13057;50.978;11.034;2023-02-12T03:59:27;17.15;;;10.73;;
25057;SDS011;13057;50.978;11.034;2023-02-12T04:01:55;17.27;;;10.38;;
25057;SDS011;13057;50.978;11.034;2023-02-12T04:04:23;18.17;;;10.52;;
25057;SDS011;13057;50.978;11.034;2023-02-12T04:06:50;15.85;;;10.05;;
25057;SDS011;13057;50.978;11.034;2023-02-12T04:09:18;18.38;;;11.35;;
25057;SDS011;13057;50.978;11.034;2023-02-12T04:11:58;19.15;;;10.93;;
25057;SDS011;13057;50.978;11.034;2023-02-12T04:14:41;18.38;;;11.30;;
25057;SDS011;13057;50.978;11.034;2023-02-12T04:17:24;18.15;;;10.05;;
25057;SDS011;13057;50.978;11.034;2023-02-12T04:20:10;17.88;;;10.88;;
25057;SDS011;13057;50.978;11.034;2023-02-12T04:22:53;19.05;;;11.57;;
25057;SDS011;13057;50.978;11.034;2023-02-12T04:25:51;19.13;;;11.32;;
25057;SDS011;13057;50.978;11.034;2023-02-12T04:28:32;19.42;;;11.23;;
25057;SDS011;13057;50.978;11.034;2023-02-12T04:31:19;18.85;;;10.98;;
25057;SDS011;13057;50.978;11.034;2023-02-12T04:33:57;20.33;;;11.07;;
25057;SDS011;13057;50.978;11.034;2023-02-12T04:36:34;18.83;;;11.27;;
25057;SDS011;13057;50.978;11.034;2023-02-12T04:39:07;18.13;;;10.45;;
25057;SDS011;13057;50.978;11.034;2023-02-12T04:41:37;16.73;;;10.70;;
25057;SDS011;13057;50.978;11.034;2023-02-12T04:46:47;19.65;;;11.55;;
25057;SDS011;13057;50.978;11.034;2023-02-12T04:49:14;16.67;;;10.35;;
25057;SDS011;13057;50.978;11.034;2023-02-12T04:51:42;20.10;;;10.95;;
25057;SDS011;13057;50.978;11.034;2023-02-12T04:54:12;16.33;;;10.90;;
25057;SDS011;13057;50.978;11.034;2023-02-12T04:56:38;18.30;;;10.73;;
25057;SDS011;13057;50.978;11.034;2023-02-12T04:59:04;19.05;;;10.88;;
25057;SDS011;13057;50.978;11.034;2023-02-12T05:01:32;17.42;;;11.48;;
25057;SDS011;13057;50.978;11.034;2023-02-12T05:03:59;17.05;;;10.82;;
25057;SDS011;13057;50.978;11.034;2023-02-12T05:06:25;20.88;;;11.18;;
25057;SDS011;13057;50.978;11.034;2023-02-12T05:08:52;19.70;;;11.60;;
25057;SDS011;13057;50.978;11.034;2023-02-12T05:11:18;17.73;;;11.00;;
25057;SDS011;13057;50.978;11.034;2023-02-12T05:13:47;21.15;;;12.10;;
25057;SDS011;13057;50.978;11.034;2023-02-12T05:16:14;19.98;;;11.70;;
25057;SDS011;13057;50.978;11.034;2023-02-12T05:18:40;19.65;;;11.82;;
25057;SDS011;13057;50.978;11.034;2023-02-12T05:21:06;22.13;;;12.57;;
25057;SDS011;13057;50.978;11.034;2023-02-12T05:23:33;18.80;;;10.77;;
25057;SDS011;13057;50.978;11.034;2023-02-12T05:26:04;18.15;;;11.23;;
25057;SDS011;13057;50.978;11.034;2023-02-12T05:28:32;19.92;;;11.57;;
25057;SDS011;13057;50.978;11.034;2023-02-12T05:30:59;21.08;;;11.63;;
25057;SDS011;13057;50.978;11.034;2023-02-12T05:33:26;18.02;;;11.35;;
25057;SDS011;13057;50.978;11.034;2023-02-12T05:35:52;18.48;;;11.13;;
25057;SDS011;13057;50.978;11.034;2023-02-12T05:38:19;17.98;;;11.05;;
25057;SDS011;13057;50.978;11.034;2023-02-12T05:40:45;20.33;;;12.15;;
25057;SDS011;13057;50.978;11.034;2023-02-12T05:43:11;19.55;;;11.05;;
25057;SDS011;13057;50.978;11.034;2023-02-12T05:45:39;17.92;;;10.90;;
25057;SDS011;13057;50.978;11.034;2023-02-12T05:48:08;18.27;;;11.68;;
25057;SDS011;13057;50.978;11.034;2023-02-12T05:50:33;20.80;;;11.55;;
25057;SDS011;13057;50.978;11.034;2023-02-12T05:53:00;19.33;;;11.55;;
25057;SDS011;13057;50.978;11.034;2023-02-12T05:55:27;20.80;;;11.60;;
25057;SDS011;13057;50.978;11.034;2023-02-12T05:57:53;20.88;;;12.60;;
25057;SDS011;13057;50.978;11.034;2023-02-12T06:00:19;20.30;;;12.13;;
25057;SDS011;13057;50.978;11.034;2023-02-12T06:02:45;19.20;;;11.55;;
25057;SDS011;13057;50.978;11.034;2023-02-12T06:05:11;21.35;;;12.25;;
25057;SDS011;13057;50.978;11.034;2023-02-12T06:07:36;19.52;;;11.55;;
25057;SDS011;13057;50.978;11.034;2023-02-12T06:10:02;20.13;;;12.07;;
25057;SDS011;13057;50.978;11.034;2023-02-12T06:12:28;19.25;;;11.90;;
25057;SDS011;13057;50.978;11.034;2023-02-12T06:14:54;19.77;;;11.73;;
25057;SDS011;13057;50.978;11.034;2023-02-12T06:17:20;20.58;;;12.25;;
25057;SDS011;13057;50.978;11.034;2023-02-12T06:19:46;19.88;;;11.65;;
25057;SDS011;13057;50.978;11.034;2023-02-12T06:22:12;20.92;;;12.13;;
25057;SDS011;13057;50.978;11.034;2023-02-12T06:24:38;20.63;;;11.77;;
25057;SDS011;13057;50.978;11.034;2023-02-12T06:27:03;22.42;;;13.10;;
25057;SDS011;13057;50.978;11.034;2023-02-12T06:29:29;21.02;;;12.90;;
25057;SDS011;13057;50.978;11.034;2023-02-12T06:31:55;22.38;;;12.05;;
25057;SDS011;13057;50.978;11.034;2023-02-12T06:34:21;22.67;;;12.40;;
25057;SDS011;13057;50.978;11.034;2023-02-12T06:36:47;24.52;;;12.93;;
25057;SDS011;13057;50.978;11.034;2023-02-12T06:39:13;21.05;;;12.52;;
25057;SDS011;13057;50.978;11.034;2023-02-12T06:41:41;19.65;;;12.38;;
25057;SDS011;13057;50.978;11.034;2023-02-12T06:44:08;23.20;;;13.35;;
25057;SDS011;13057;50.978;11.034;2023-02-12T06:46:35;22.05;;;12.35;;
25057;SDS011;13057;50.978;11.034;2023-02-12T06:49:01;21.42;;;12.57;;
25057;SDS011;13057;50.978;11.034;2023-02-12T06:51:28;20.92;;;12.18;;
25057;SDS011;13057;50.978;11.034;2023-02-12T06:53:55;23.38;;;12.63;;
25057;SDS011;13057;50.978;11.034;2023-02-12T06:56:21;21.88;;;12.82;;
25057;SDS011;13057;50.978;11.034;2023-02-12T06:58:51;20.55;;;12.63;;
25057;SDS011;13057;50.978;11.034;2023-02-12T07:01:21;21.30;;;12.57;;
25057;SDS011;13057;50.978;11.034;2023-02-12T07:06:34;21.85;;;12.10;;
25057;SDS011;13057;50.978;11.034;2023-02-12T07:09:00;21.50;;;12.70;;
25057;SDS011;13057;50.978;11.034;2023-02-12T07:11:28;20.63;;;12.30;;
25057;SDS011;13057;50.978;11.034;2023-02-12T07:13:56;22.83;;;12.57;;
25057;SDS011;13057;50.978;11.034;2023-02-12T07:16:22;22.42;;;13.45;;
25057;SDS011;13057;50.978;11.034;2023-02-12T07:18:48;21.30;;;11.77;;
25057;SDS011;13057;50.978;11.034;2023-02-12T07:21:14;20.20;;;12.35;;
25057;SDS011;13057;50.978;11.034;2023-02-12T07:23:41;20.63;;;12.48;;
25057;SDS011;13057;50.978;11.034;2023-02-12T07:26:11;21.45;;;12.68;;
25057;SDS011;13057;50.978;11.034;2023-02-12T07:28:39;20.73;;;12.95;;
25057;SDS011;13057;50.978;11.034;2023-02-12T07:31:09;20.85;;;12.68;;
25057;SDS011;13057;50.978;11.034;2023-02-12T07:33:37;21.27;;;12.57;;
25057;SDS011;13057;50.978;11.034;2023-02-12T07:36:04;22.80;;;12.68;;
25057;SDS011;13057;50.978;11.034;2023-02-12T07:38:32;24.27;;;13.30;;
25057;SDS011;13057;50.978;11.034;2023-02-12T07:41:06;23.48;;;12.88;;
25057;SDS011;13057;50.978;11.034;2023-02-12T07:43:37;24.35;;;13.40;;
25057;SDS011;13057;50.978;11.034;2023-02-12T07:46:07;22.83;;;13.00;;
25057;SDS011;13057;50.978;11.034;2023-02-12T07:48:37;22.95;;;13.57;;
25057;SDS011;13057;50.978;11.034;2023-02-12T07:51:04;25.23;;;15.02;;
25057;SDS011;13057;50.978;11.034;2023-02-12T07:53:32;24.90;;;14.52;;
25057;SDS011;13057;50.978;11.034;2023-02-12T07:56:14;25.13;;;14.85;;
25057;SDS011;13057;50.978;11.034;2023-02-12T07:58:42;30.00;;;16.42;;
25057;SDS011;13057;50.978;11.034;2023-02-12T08:01:10;27.05;;;14.63;;
25057;SDS011;13057;50.978;11.034;2023-02-12T08:03:37;25.38;;;14.18;;
25057;SDS011;13057;50.978;11.034;2023-02-12T08:06:07;21.92;;;12.48;;
25057;SDS011;13057;50.978;11.034;2023-02-12T08:08:35;32.05;;;18.38;;
25057;SDS011;13057;50.978;11.034;2023-02-12T08:11:03;26.52;;;15.20;;
25057;SDS011;13057;50.978;11.034;2023-02-12T08:13:31;29.15;;;15.88;;
25057;SDS011;13057;50.978;11.034;2023-02-12T08:16:00;34.50;;;20.02;;
25057;SDS011;13057;50.978;11.034;2023-02-12T08:18:28;26.42;;;15.63;;
25057;SDS011;13057;50.978;11.034;2023-02-12T08:20:59;25.25;;;14.25;;
25057;SDS011;13057;50.978;11.034;2023-02-12T08:23:28;26.30;;;15.15;;
25057;SDS011;13057;50.978;11.034;2023-02-12T08:25:54;24.98;;;13.88;;
25057;SDS011;13057;50.978;11.034;2023-02-12T08:28:28;26.27;;;13.38;;
25057;SDS011;13057;50.978;11.034;2023-02-12T08:30:58;25.30;;;13.98;;
25057;SDS011;13057;50.978;11.034;2023-02-12T08:33:24;22.25;;;13.25;;
25057;SDS011;13057;50.978;11.034;2023-02-12T08:35:58;24.08;;;13.45;;
25057;SDS011;13057;50.978;11.034;2023-02-12T08:38:26;24.88;;;13.95;;
25057;SDS011;13057;50.978;11.034;2023-02-12T08:40:51;21.90;;;13.85;;
25057;SDS011;13057;50.978;11.034;2023-02-12T08:43:17;25.55;;;14.13;;
25057;SDS011;13057;50.978;11.034;2023-02-12T08:45:44;24.63;;;13.50;;
25057;SDS011;13057;50.978;11.034;2023-02-12T08:48:09;23.75;;;13.60;;
25057;SDS011;13057;50.978;11.034;2023-02-12T08:50:35;23.23;;;13.40;;
25057;SDS011;13057;50.978;11.034;2023-02-12T08:53:04;26.63;;;14.27;;
25057;SDS011;13057;50.978;11.034;2023-02-12T08:55:32;25.95;;;14.30;;
25057;SDS011;13057;50.978;11.034;2023-02-12T08:57:57;24.08;;;13.50;;
25057;SDS011;13057;50.978;11.034;2023-02-12T09:00:23;25.13;;;13.93;;
25057;SDS011;13057;50.978;11.034;2023-02-12T09:02:49;28.17;;;14.63;;
25057;SDS011;13057;50.978;11.034;2023-02-12T09:05:15;27.00;;;14.38;;
25057;SDS011;13057;50.978;11.034;2023-02-12T09:07:41;26.90;;;14.88;;
25057;SDS011;13057;50.978;11.034;2023-02-12T09:10:06;23.60;;;13.80;;
25057;SDS011;13057;50.978;11.034;2023-02-12T09:12:33;25.13;;;14.30;;
25057;SDS011;13057;50.978;11.034;2023-02-12T09:14:58;26.25;;;15.30;;
25057;SDS011;13057;50.978;11.034;2023-02-12T09:17:24;25.58;;;13.60;;
25057;SDS011;13057;50.978;11.034;2023-02-12T09:19:52;30.45;;;14.77;;
25057;SDS011;13057;50.978;11.034;2023-02-12T09:22:18;27.73;;;14.10;;
25057;SDS011;13057;50.978;11.034;2023-02-12T09:24:44;25.77;;;13.80;;
25057;SDS011;13057;50.978;11.034;2023-02-12T09:27:10;29.10;;;15.57;;
25057;SDS011;13057;50.978;11.034;2023-02-12T09:29:35;28.65;;;14.70;;
25057;SDS011;13057;50.978;11.034;2023-02-12T09:32:02;30.98;;;14.95;;
25057;SDS011;13057;50.978;11.034;2023-02-12T09:34:33;28.80;;;15.18;;
25057;SDS011;13057;50.978;11.034;2023-02-12T09:37:00;31.15;;;14.70;;
25057;SDS011;13057;50.978;11.034;2023-02-12T09:39:26;28.58;;;14.82;;
25057;SDS011;13057;50.978;11.034;2023-02-12T09:42:06;29.55;;;15.02;;
25057;SDS011;13057;50.978;11.034;2023-02-12T09:45:01;27.38;;;14.60;;
25057;SDS011;13057;50.978;11.034;2023-02-12T09:47:41;30.33;;;14.23;;
25057;SDS011;13057;50.978;11.034;2023-02-12T09:53:14;29.15;;;14.90;;
25057;SDS011;13057;50.978;11.034;2023-02-12T09:55:43;25.70;;;13.30;;
25057;SDS011;13057;50.978;11.034;2023-02-12T09:58:12;29.40;;;14.05;;
25057;SDS011;13057;50.978;11.034;2023-02-12T10:00:47;28.70;;;14.32;;
25057;SDS011;13057;50.978;11.034;2023-02-12T10:03:15;25.23;;;12.95;;
25057;SDS011;13057;50.978;11.034;2023-02-12T10:05:43;22.73;;;12.32;;
25057;SDS011;13057;50.978;11.034;2023-02-12T10:08:21;22.23;;;12.88;;
25057;SDS011;13057;50.978;11.034;2023-02-12T10:11:00;25.10;;;13.13;;
25057;SDS011;13057;50.978;11.034;2023-02-12T10:13:48;22.05;;;12.40;;
25057;SDS011;13057;50.978;11.034;2023-02-12T10:16:42;22.65;;;12.15;;
25057;SDS011;13057;50.978;11.034;2023-02-12T10:19:26;25.23;;;13.90;;
25057;SDS011;13057;50.978;11.034;2023-02-12T10:22:06;22.77;;;12.23;;
25057;SDS011;13057;50.978;11.034;2023-02-12T10:24:47;22.50;;;10.90;;
25057;SDS011;13057;50.978;11.034;2023-02-12T10:27:33;20.95;;;12.32;;
25057;SDS011;13057;50.978;11.034;2023-02-12T10:30:12;25.52;;;12.77;;
25057;SDS011;13057;50.978;11.034;2023-02-12T10:32:42;21.67;;;11.55;;
25057;SDS011;13057;50.978;11.034;2023-02-12T10:35:11;20.23;;;10.98;;
25057;SDS011;13057;50.978;11.034;2023-02-12T10:37:42;20.17;;;10.60;;
25057;SDS011;13057;50.978;11.034;2023-02-12T10:40:23;23.17;;;11.23;;
25057;SDS011;13057;50.978;11.034;2023-02-12T10:42:55;21.10;;;11.13;;
25057;SDS011;13057;50.978;11.034;2023-02-12T10:45:24;20.88;;;10.52;;
25057;SDS011;13057;50.978;11.034;2023-02-12T10:48:06;20.30;;;11.18;;
25057;SDS011;13057;50.978;11.034;2023-02-12T10:50:46;21.23;;;10.48;;
25057;SDS011;13057;50.978;11.034;2023-02-12T10:53:28;19.73;;;10.13;;
25057;SDS011;13057;50.978;11.034;2023-02-12T10:56:10;23.15;;;13.00;;
25057;SDS011;13057;50.978;11.034;2023-02-12T10:58:53;18.17;;;10.77;;
25057;SDS011;13057;50.978;11.034;2023-02-12T11:01:22;20.73;;;10.95;;
25057;SDS011;13057;50.978;11.034;2023-02-12T11:03:56;17.98;;;10.88;;
25057;SDS011;13057;50.978;11.034;2023-02-12T11:06:25;20.33;;;11.25;;
25057;SDS011;13057;50.978;11.034;2023-02-12T11:08:52;23.75;;;11.23;;
25057;SDS011;13057;50.978;11.034;2023-02-12T11:11:20;21.75;;;11.38;;
25057;SDS011;13057;50.978;11.034;2023-02-12T11:13:56;21.25;;;10.98;;
25057;SDS011;13057;50.978;11.034;2023-02-12T11:16:29;20.80;;;11.20;;
25057;SDS011;13057;50.978;11.034;2023-02-12T11:19:01;19.38;;;10.90;;
25057;SDS011;13057;50.978;11.034;2023-02-12T11:21:29;19.10;;;10.05;;
25057;SDS011;13057;50.978;11.034;2023-02-12T11:23:55;18.65;;;9.93;;
25057;SDS011;13057;50.978;11.034;2023-02-12T11:26:23;17.25;;;10.48;;
25057;SDS011;13057;50.978;11.034;2023-02-12T11:28:55;16.60;;;9.90;;
25057;SDS011;13057;50.978;11.034;2023-02-12T11:31:31;19.60;;;11.55;;
25057;SDS011;13057;50.978;11.034;2023-02-12T11:34:17;16.80;;;9.32;;
25057;SDS011;13057;50.978;11.034;2023-02-12T11:36:45;15.32;;;8.93;;
25057;SDS011;13057;50.978;11.034;2023-02-12T11:39:18;13.25;;;8.25;;
25057;SDS011;13057;50.978;11.034;2023-02-12T11:41:50;13.23;;;7.25;;
25057;SDS011;13057;50.978;11.034;2023-02-12T11:44:19;14.65;;;7.88;;
25057;SDS011;13057;50.978;11.034;2023-02-12T11:46:49;12.20;;;7.38;;
25057;SDS011;13057;50.978;11.034;2023-02-12T11:51:59;11.35;;;6.45;;
25057;SDS011;13057;50.978;11.034;2023-02-12T11:54:31;17.65;;;9.05;;
25057;SDS011;13057;50.978;11.034;2023-02-12T11:57:09;11.57;;;7.32;;
25057;SDS011;13057;50.978;11.034;2023-02-12T11:59:52;11.75;;;6.70;;
25057;SDS011;13057;50.978;11.034;2023-02-12T12:02:27;10.90;;;6.63;;
25057;SDS011;13057;50.978;11.034;2023-02-12T12:05:08;12.43;;;6.55;;
25057;SDS011;13057;50.978;11.034;2023-02-12T12:07:40;11.52;;;7.07;;
25057;SDS011;13057;50.978;11.034;2023-02-12T12:10:16;14.20;;;6.80;;
25057;SDS011;13057;50.978;11.034;2023-02-12T12:12:49;13.68;;;7.65;;
25057;SDS011;13057;50.978;11.034;2023-02-12T12:15:24;12.88;;;7.97;;
25057;SDS011;13057;50.978;11.034;2023-02-12T12:18:15;17.55;;;10.05;;
25057;SDS011;13057;50.978;11.034;2023-02-12T12:21:12;12.60;;;7.90;;
25057;SDS011;13057;50.978;11.034;2023-02-12T12:23:56;11.27;;;6.55;;
25057;SDS011;13057;50.978;11.034;2023-02-12T12:26:32;11.57;;;6.97;;
25057;SDS011;13057;50.978;11.034;2023-02-12T12:29:02;12.18;;;7.38;;
25057;SDS011;13057;50.978;11.034;2023-02-12T12:31:36;9.73;;;6.15;;
25057;SDS011;13057;50.978;11.034;2023-02-12T12:34:12;8.68;;;5.28;;
25057;SDS011;13057;50.978;11.034;2023-02-12T12:36:52;9.65;;;5.32;;
25057;SDS011;13057;50.978;11.034;2023-02-12T12:39:34;7.43;;;5.22;;
25057;SDS011;13057;50.978;11.034;2023-02-12T12:42:25;10.23;;;5.63;;
25057;SDS011;13057;50.978;11.034;2023-02-12T12:45:18;9.25;;;6.10;;
25057;SDS011;13057;50.978;11.034;2023-02-12T12:48:03;9.98;;;5.65;;
25057;SDS011;13057;50.978;11.034;2023-02-12T12:53:48;11.10;;;6.80;;
25057;SDS011;13057;50.978;11.034;2023-02-12T12:56:28;8.23;;;5.30;;
25057;SDS011;13057;50.978;11.034;2023-02-12T13:05:08;9.82;;;5.90;;
25057;SDS011;13057;50.978;11.034;2023-02-12T13:08:02;8.90;;;5.78;;
25057;SDS011;13057;50.978;11.034;2023-02-12T13:10:47;8.27;;;5.32;;
25057;SDS011;13057;50.978;11.034;2023-02-12T13:13:20;9.38;;;5.53;;
25057;SDS011;13057;50.978;11.034;2023-02-12T13:15:58;8.88;;;5.40;;
25057;SDS011;13057;50.978;11.034;2023-02-12T13:18:43;10.27;;;5.93;;
25057;SDS011;13057;50.978;11.034;2023-02-12T13:21:33;10.35;;;6.57;;
25057;SDS011;13057;50.978;11.034;2023-02-12T13:24:34;9.68;;;5.30;;
25057;SDS011;13057;50.978;11.034;2023-02-12T13:27:11;10.15;;;5.00;;
25057;SDS011;13057;50.978;11.034;2023-02-12T13:29:47;10.18;;;5.68;;
25057;SDS011;13057;50.978;11.034;2023-02-12T13:32:22;11.05;;;6.20;;
25057;SDS011;13057;50.978;11.034;2023-02-12T13:34:53;10.23;;;6.15;;
25057;SDS011;13057;50.978;11.034;2023-02-12T13:37:24;10.00;;;5.53;;
25057;SDS011;13057;50.978;11.034;2023-02-12T13:40:03;8.55;;;5.40;;
25057;SDS011;13057;50.978;11.034;2023-02-12T13:45:18;7.75;;;4.70;;
25057;SDS011;13057;50.978;11.034;2023-02-12T13:50:34;7.18;;;4.10;;
25057;SDS011;13057;50.978;11.034;2023-02-12T13:53:14;7.47;;;4.50;;
25057;SDS011;13057;50.978;11.034;2023-02-12T13:55:55;7.18;;;4.18;;
25057;SDS011;13057;50.978;11.034;2023-02-12T13:58:38;9.30;;;5.30;;
25057;SDS011;13057;50.978;11.034;2023-02-12T14:01:05;7.53;;;4.20;;
25057;SDS011;13057;50.978;11.034;2023-02-12T14:03:34;6.43;;;4.20;;
25057;SDS011;13057;50.978;11.034;2023-02-12T14:06:10;9.65;;;5.53;;
25057;SDS011;13057;50.978;11.034;2023-02-12T14:08:41;6.70;;;4.20;;
25057;SDS011;13057;50.978;11.034;2023-02-12T14:11:12;6.97;;;4.00;;
25057;SDS011;13057;50.978;11.034;2023-02-12T14:13:46;6.78;;;4.30;;
25057;SDS011;13057;50.978;11.034;2023-02-12T14:16:17;6.15;;;4.30;;
25057;SDS011;13057;50.978;11.034;2023-02-12T14:21:50;9.00;;;5.25;;
25057;SDS011;13057;50.978;11.034;2023-02-12T14:30:03;7.10;;;4.63;;
25057;SDS011;13057;50.978;11.034;2023-02-12T14:32:56;6.72;;;4.38;;
25057;SDS011;13057;50.978;11.034;2023-02-12T14:35:43;7.60;;;4.60;;
25057;SDS011;13057;50.978;11.034;2023-02-12T14:41:23;5.88;;;3.15;;
25057;SDS011;13057;50.978;11.034;2023-02-12T14:45:32;6.90;;;3.97;;
25057;SDS011;13057;50.978;11.034;2023-02-12T14:47:08;6.53;;;3.58;;
25057;SDS011;13057;50.978;11.034;2023-02-12T14:49:39;5.28;;;3.40;;
25057;SDS011;13057;50.978;11.034;2023-02-12T14:52:15;6.05;;;3.50;;
25057;SDS011;13057;50.978;11.034;2023-02-12T14:54:48;7.53;;;4.10;;
25057;SDS011;13057;50.978;11.034;2023-02-12T14:57:20;6.30;;;3.55;;
25057;SDS011;13057;50.978;11.034;2023-02-12T14:59:51;6.43;;;3.85;;
25057;SDS011;13057;50.978;11.034;2023-02-12T15:02:25;7.65;;;4.63;;
25057;SDS011;13057;50.978;11.034;2023-02-12T15:04:56;9.38;;;5.90;;
25057;SDS011;13057;50.978;11.034;2023-02-12T15:07:30;10.77;;;5.28;;
25057;SDS011;13057;50.978;11.034;2023-02-12T15:10:02;8.50;;;4.72;;
25057;SDS011;13057;50.978;11.034;2023-02-12T15:12:37;6.80;;;4.05;;
25057;SDS011;13057;50.978;11.034;2023-02-12T15:15:17;7.35;;;4.18;;
25057;SDS011;13057;50.978;11.034;2023-02-12T15:23:45;9.15;;;4.45;;
25057;SDS011;13057;50.978;11.034;2023-02-12T15:26:21;11.32;;;6.40;;
25057;SDS011;13057;50.978;11.034;2023-02-12T15:28:50;8.27;;;4.72;;
25057;SDS011;13057;50.978;11.034;2023-02-12T15:31:19;12.80;;;7.70;;
25057;SDS011;13057;50.978;11.034;2023-02-12T15:33:51;7.72;;;4.50;;
25057;SDS011;13057;50.978;11.034;2023-02-12T15:36:21;13.02;;;4.78;;
25057;SDS011;13057;50.978;11.034;2023-02-12T15:38:50;7.97;;;4.45;;